sensor_id;sensor_type;location;lat;lon;timestamp;temperature;humidity
19880;DHT22;10102;50.828;4.416;2023-01-01T00:00:56;16.40;99.90
19880;DHT22;10102;50.828;4.416;2023-01-01T00:03:22;16.40;99.90
19880;DHT22;10102;50.828;4.416;2023-01-01T00:05:48;16.40;99.90
19880;DHT22;10102;50.828;4.416;2023-01-01T00:08:13;16.30;99.90
19880;DHT22;10102;50.828;4.416;2023-01-01T00:10:39;16.20;99.90
19880;DHT22;10102;50.828;4.416;2023-01-01T00:13:05;16.20;99.90
19880;DHT22;10102;50.828;4.416;2023-01-01T00:15:32;16.20;99.90
19880;DHT22;10102;50.828;4.416;2023-01-01T00:17:58;16.30;99.90
19880;DHT22;10102;50.828;4.416;2023-01-01T00:20:24;16.20;99.90
19880;DHT22;10102;50.828;4.416;2023-01-01T00:22:50;16.20;99.90
19880;DHT22;10102;50.828;4.416;2023-01-01T00:25:15;16.20;99.90
19880;DHT22;10102;50.828;4.416;2023-01-01T00:27:42;16.20;99.90
19880;DHT22;10102;50.828;4.416;2023-01-01T00:30:09;16.10;99.90
19880;DHT22;10102;50.828;4.416;2023-01-01T00:32:35;16.20;99.90
19880;DHT22;10102;50.828;4.416;2023-01-01T00:35:01;16.10;99.90
19880;DHT22;10102;50.828;4.416;2023-01-01T00:37:27;16.10;99.90
19880;DHT22;10102;50.828;4.416;2023-01-01T00:39:53;16.10;99.90
19880;DHT22;10102;50.828;4.416;2023-01-01T00:42:19;16.10;99.90
19880;DHT22;10102;50.828;4.416;2023-01-01T00:44:45;15.80;99.90
19880;DHT22;10102;50.828;4.416;2023-01-01T00:47:10;16.00;99.90
19880;DHT22;10102;50.828;4.416;2023-01-01T00:49:36;16.10;99.90
19880;DHT22;10102;50.828;4.416;2023-01-01T00:52:02;16.10;99.90
19880;DHT22;10102;50.828;4.416;2023-01-01T00:54:28;16.10;99.90
19880;DHT22;10102;50.828;4.416;2023-01-01T00:56:53;16.00;99.90
19880;DHT22;10102;50.828;4.416;2023-01-01T00:59:20;16.10;99.90
19880;DHT22;10102;50.828;4.416;2023-01-01T01:01:46;16.00;99.90
19880;DHT22;10102;50.828;4.416;2023-01-01T01:04:11;16.00;99.90
19880;DHT22;10102;50.828;4.416;2023-01-01T01:06:37;16.10;99.90
19880;DHT22;10102;50.828;4.416;2023-01-01T01:09:03;16.20;99.90
19880;DHT22;10102;50.828;4.416;2023-01-01T01:11:29;16.00;99.90
19880;DHT22;10102;50.828;4.416;2023-01-01T01:13:56;16.10;99.90
19880;DHT22;10102;50.828;4.416;2023-01-01T01:16:39;16.00;99.90
19880;DHT22;10102;50.828;4.416;2023-01-01T01:19:06;15.90;99.90
19880;DHT22;10102;50.828;4.416;2023-01-01T01:21:33;15.80;99.90
19880;DHT22;10102;50.828;4.416;2023-01-01T01:24:00;16.00;99.90
19880;DHT22;10102;50.828;4.416;2023-01-01T01:26:28;16.00;99.90
19880;DHT22;10102;50.828;4.416;2023-01-01T01:28:55;15.80;99.90
19880;DHT22;10102;50.828;4.416;2023-01-01T01:31:22;16.00;99.90
19880;DHT22;10102;50.828;4.416;2023-01-01T01:33:49;15.90;99.90
19880;DHT22;10102;50.828;4.416;2023-01-01T01:36:16;16.00;99.90
19880;DHT22;10102;50.828;4.416;2023-01-01T01:38:43;15.90;99.90
19880;DHT22;10102;50.828;4.416;2023-01-01T01:41:09;16.10;99.90
19880;DHT22;10102;50.828;4.416;2023-01-01T01:46:16;16.00;99.90
19880;DHT22;10102;50.828;4.416;2023-01-01T01:48:51;16.10;99.90
19880;DHT22;10102;50.828;4.416;2023-01-01T01:51:38;16.40;99.90
19880;DHT22;10102;50.828;4.416;2023-01-01T01:54:10;16.00;99.90
19880;DHT22;10102;50.828;4.416;2023-01-01T01:56:43;16.00;99.90
19880;DHT22;10102;50.828;4.416;2023-01-01T01:59:10;16.00;99.90
19880;DHT22;10102;50.828;4.416;2023-01-01T02:01:36;16.10;99.90
19880;DHT22;10102;50.828;4.416;2023-01-01T02:04:02;16.00;99.90
19880;DHT22;10102;50.828;4.416;2023-01-01T02:06:30;16.00;99.90
19880;DHT22;10102;50.828;4.416;2023-01-01T02:08:58;16.20;99.90
19880;DHT22;10102;50.828;4.416;2023-01-01T02:11:25;16.00;99.90
19880;DHT22;10102;50.828;4.416;2023-01-01T02:13:52;16.00;99.90
19880;DHT22;10102;50.828;4.416;2023-01-01T02:24:41;15.70;99.90
19880;DHT22;10102;50.828;4.416;2023-01-01T02:27:45;15.80;99.90
19880;DHT22;10102;50.828;4.416;2023-01-01T02:30:14;15.70;99.90
19880;DHT22;10102;50.828;4.416;2023-01-01T02:33:13;15.70;99.90
19880;DHT22;10102;50.828;4.416;2023-01-01T02:36:02;15.60;99.90
19880;DHT22;10102;50.828;4.416;2023-01-01T02:38:40;15.60;99.90
19880;DHT22;10102;50.828;4.416;2023-01-01T02:41:11;15.80;99.90
19880;DHT22;10102;50.828;4.416;2023-01-01T02:43:38;15.80;99.90
19880;DHT22;10102;50.828;4.416;2023-01-01T02:46:05;15.70;99.90
19880;DHT22;10102;50.828;4.416;2023-01-01T02:48:41;15.80;99.90
19880;DHT22;10102;50.828;4.416;2023-01-01T02:53:43;15.50;99.90
19880;DHT22;10102;50.828;4.416;2023-01-01T02:56:20;15.60;99.90
19880;DHT22;10102;50.828;4.416;2023-01-01T03:01:59;15.60;99.90
19880;DHT22;10102;50.828;4.416;2023-01-01T03:07:26;15.50;99.90
19880;DHT22;10102;50.828;4.416;2023-01-01T03:12:39;15.60;99.90
19880;DHT22;10102;50.828;4.416;2023-01-01T03:15:23;15.60;99.90
19880;DHT22;10102;50.828;4.416;2023-01-01T03:18:07;15.60;99.90
19880;DHT22;10102;50.828;4.416;2023-01-01T03:20:38;15.50;99.90
19880;DHT22;10102;50.828;4.416;2023-01-01T03:23:11;15.60;99.90
19880;DHT22;10102;50.828;4.416;2023-01-01T03:25:44;15.70;99.90
19880;DHT22;10102;50.828;4.416;2023-01-01T03:28:17;15.60;99.90
19880;DHT22;10102;50.828;4.416;2023-01-01T03:30:45;15.40;99.90
19880;DHT22;10102;50.828;4.416;2023-01-01T03:33:37;15.40;99.90
19880;DHT22;10102;50.828;4.416;2023-01-01T03:36:28;15.30;99.90
19880;DHT22;10102;50.828;4.416;2023-01-01T03:38:59;15.10;99.90
19880;DHT22;10102;50.828;4.416;2023-01-01T03:45:10;14.80;99.90
19880;DHT22;10102;50.828;4.416;2023-01-01T03:47:34;14.80;99.90
19880;DHT22;10102;50.828;4.416;2023-01-01T03:50:01;14.40;99.90
19880;DHT22;10102;50.828;4.416;2023-01-01T03:58:47;14.70;99.90
19880;DHT22;10102;50.828;4.416;2023-01-01T04:01:09;14.70;99.90
19880;DHT22;10102;50.828;4.416;2023-01-01T04:03:37;14.70;99.90
19880;DHT22;10102;50.828;4.416;2023-01-01T04:06:05;14.80;99.90
19880;DHT22;10102;50.828;4.416;2023-01-01T04:08:32;14.80;99.90
19880;DHT22;10102;50.828;4.416;2023-01-01T04:10:59;14.80;99.90
19880;DHT22;10102;50.828;4.416;2023-01-01T04:13:48;14.90;99.90
19880;DHT22;10102;50.828;4.416;2023-01-01T04:16:14;14.80;99.90
19880;DHT22;10102;50.828;4.416;2023-01-01T04:18:39;15.00;99.90
19880;DHT22;10102;50.828;4.416;2023-01-01T04:21:05;14.80;99.90
19880;DHT22;10102;50.828;4.416;2023-01-01T04:23:31;14.70;99.90
19880;DHT22;10102;50.828;4.416;2023-01-01T04:28:22;14.90;99.90
19880;DHT22;10102;50.828;4.416;2023-01-01T04:30:48;14.80;99.90
19880;DHT22;10102;50.828;4.416;2023-01-01T04:33:13;14.80;99.90
19880;DHT22;10102;50.828;4.416;2023-01-01T04:35:39;14.90;99.90
19880;DHT22;10102;50.828;4.416;2023-01-01T04:38:05;14.50;99.90
19880;DHT22;10102;50.828;4.416;2023-01-01T04:40:30;14.80;99.90
19880;DHT22;10102;50.828;4.416;2023-01-01T04:42:56;14.80;99.90
19880;DHT22;10102;50.828;4.416;2023-01-01T04:45:22;14.70;99.90
19880;DHT22;10102;50.828;4.416;2023-01-01T04:47:47;14.80;99.90
19880;DHT22;10102;50.828;4.416;2023-01-01T04:50:13;14.80;99.90
19880;DHT22;10102;50.828;4.416;2023-01-01T04:52:39;14.90;99.90
19880;DHT22;10102;50.828;4.416;2023-01-01T04:55:05;14.70;99.90
19880;DHT22;10102;50.828;4.416;2023-01-01T04:57:31;14.80;99.90
19880;DHT22;10102;50.828;4.416;2023-01-01T04:59:56;14.90;99.90
19880;DHT22;10102;50.828;4.416;2023-01-01T05:02:22;14.90;99.90
19880;DHT22;10102;50.828;4.416;2023-01-01T05:04:48;15.00;99.90
19880;DHT22;10102;50.828;4.416;2023-01-01T05:07:13;14.80;99.90
19880;DHT22;10102;50.828;4.416;2023-01-01T05:09:39;14.90;99.90
19880;DHT22;10102;50.828;4.416;2023-01-01T05:12:05;14.90;99.90
19880;DHT22;10102;50.828;4.416;2023-01-01T05:14:31;15.00;99.90
19880;DHT22;10102;50.828;4.416;2023-01-01T05:16:56;15.00;99.90
19880;DHT22;10102;50.828;4.416;2023-01-01T05:19:22;15.10;99.90
19880;DHT22;10102;50.828;4.416;2023-01-01T05:21:47;15.10;99.90
19880;DHT22;10102;50.828;4.416;2023-01-01T05:24:13;15.00;99.90
19880;DHT22;10102;50.828;4.416;2023-01-01T05:26:43;15.20;99.90
19880;DHT22;10102;50.828;4.416;2023-01-01T05:29:09;15.20;99.90
19880;DHT22;10102;50.828;4.416;2023-01-01T05:31:35;15.10;99.90
19880;DHT22;10102;50.828;4.416;2023-01-01T05:34:02;15.10;99.90
19880;DHT22;10102;50.828;4.416;2023-01-01T05:36:30;15.00;99.90
19880;DHT22;10102;50.828;4.416;2023-01-01T05:38:57;15.00;99.90
19880;DHT22;10102;50.828;4.416;2023-01-01T05:41:23;14.80;99.90
19880;DHT22;10102;50.828;4.416;2023-01-01T05:43:50;15.10;99.90
19880;DHT22;10102;50.828;4.416;2023-01-01T05:46:20;15.00;99.90
19880;DHT22;10102;50.828;4.416;2023-01-01T05:48:47;14.90;99.90
19880;DHT22;10102;50.828;4.416;2023-01-01T05:51:21;15.00;99.90
19880;DHT22;10102;50.828;4.416;2023-01-01T05:53:47;15.00;99.90
19880;DHT22;10102;50.828;4.416;2023-01-01T05:56:14;14.90;99.90
19880;DHT22;10102;50.828;4.416;2023-01-01T05:58:40;15.10;99.90
19880;DHT22;10102;50.828;4.416;2023-01-01T06:01:07;15.00;99.90
19880;DHT22;10102;50.828;4.416;2023-01-01T06:03:33;15.00;99.90
19880;DHT22;10102;50.828;4.416;2023-01-01T06:06:03;15.00;99.90
19880;DHT22;10102;50.828;4.416;2023-01-01T06:08:29;15.00;99.90
19880;DHT22;10102;50.828;4.416;2023-01-01T06:10:59;14.80;99.90
19880;DHT22;10102;50.828;4.416;2023-01-01T06:13:25;15.20;99.90
19880;DHT22;10102;50.828;4.416;2023-01-01T06:15:55;14.90;99.90
19880;DHT22;10102;50.828;4.416;2023-01-01T06:18:22;14.90;99.90
19880;DHT22;10102;50.828;4.416;2023-01-01T06:20:48;14.90;99.90
19880;DHT22;10102;50.828;4.416;2023-01-01T06:23:14;15.00;99.90
19880;DHT22;10102;50.828;4.416;2023-01-01T06:25:39;14.90;99.90
19880;DHT22;10102;50.828;4.416;2023-01-01T06:28:05;14.90;99.90
19880;DHT22;10102;50.828;4.416;2023-01-01T06:30:30;14.90;99.90
19880;DHT22;10102;50.828;4.416;2023-01-01T06:33:01;14.90;99.90
19880;DHT22;10102;50.828;4.416;2023-01-01T06:35:27;14.70;99.90
19880;DHT22;10102;50.828;4.416;2023-01-01T06:37:53;14.70;99.90
19880;DHT22;10102;50.828;4.416;2023-01-01T06:40:19;14.80;99.90
19880;DHT22;10102;50.828;4.416;2023-01-01T06:42:44;14.80;99.90
19880;DHT22;10102;50.828;4.416;2023-01-01T06:45:10;14.70;99.90
19880;DHT22;10102;50.828;4.416;2023-01-01T06:47:37;14.70;99.90
19880;DHT22;10102;50.828;4.416;2023-01-01T06:50:04;14.80;99.90
19880;DHT22;10102;50.828;4.416;2023-01-01T06:52:30;15.20;99.90
19880;DHT22;10102;50.828;4.416;2023-01-01T06:54:56;14.80;99.90
19880;DHT22;10102;50.828;4.416;2023-01-01T06:57:23;14.70;99.90
19880;DHT22;10102;50.828;4.416;2023-01-01T06:59:48;14.60;99.90
19880;DHT22;10102;50.828;4.416;2023-01-01T07:02:14;14.60;99.90
19880;DHT22;10102;50.828;4.416;2023-01-01T07:04:40;14.70;99.90
19880;DHT22;10102;50.828;4.416;2023-01-01T07:07:05;14.60;99.90
19880;DHT22;10102;50.828;4.416;2023-01-01T07:09:31;14.70;99.90
19880;DHT22;10102;50.828;4.416;2023-01-01T07:11:57;14.70;99.90
19880;DHT22;10102;50.828;4.416;2023-01-01T07:14:22;14.70;99.90
19880;DHT22;10102;50.828;4.416;2023-01-01T07:16:48;14.50;99.90
19880;DHT22;10102;50.828;4.416;2023-01-01T07:19:13;14.60;99.90
19880;DHT22;10102;50.828;4.416;2023-01-01T07:21:44;14.60;99.90
19880;DHT22;10102;50.828;4.416;2023-01-01T07:24:13;14.60;99.90
19880;DHT22;10102;50.828;4.416;2023-01-01T07:26:39;14.50;99.90
19880;DHT22;10102;50.828;4.416;2023-01-01T07:29:05;14.60;99.90
19880;DHT22;10102;50.828;4.416;2023-01-01T07:31:34;14.40;99.90
19880;DHT22;10102;50.828;4.416;2023-01-01T07:34:00;14.50;99.90
19880;DHT22;10102;50.828;4.416;2023-01-01T07:36:25;14.50;99.90
19880;DHT22;10102;50.828;4.416;2023-01-01T07:38:51;14.50;99.90
19880;DHT22;10102;50.828;4.416;2023-01-01T07:41:17;14.50;99.90
19880;DHT22;10102;50.828;4.416;2023-01-01T07:43:42;14.40;99.90
19880;DHT22;10102;50.828;4.416;2023-01-01T07:46:13;14.50;99.90
19880;DHT22;10102;50.828;4.416;2023-01-01T07:48:41;14.50;99.90
19880;DHT22;10102;50.828;4.416;2023-01-01T07:51:06;14.40;99.90
19880;DHT22;10102;50.828;4.416;2023-01-01T07:53:32;14.60;99.90
19880;DHT22;10102;50.828;4.416;2023-01-01T07:55:58;14.30;99.90
19880;DHT22;10102;50.828;4.416;2023-01-01T07:58:23;14.90;99.90
19880;DHT22;10102;50.828;4.416;2023-01-01T08:00:49;14.20;99.90
19880;DHT22;10102;50.828;4.416;2023-01-01T08:03:15;14.60;99.90
19880;DHT22;10102;50.828;4.416;2023-01-01T08:05:41;14.30;99.90
19880;DHT22;10102;50.828;4.416;2023-01-01T08:08:08;14.40;99.90
19880;DHT22;10102;50.828;4.416;2023-01-01T08:10:33;14.40;99.90
19880;DHT22;10102;50.828;4.416;2023-01-01T08:13:00;14.30;99.90
19880;DHT22;10102;50.828;4.416;2023-01-01T08:15:26;14.40;99.90
19880;DHT22;10102;50.828;4.416;2023-01-01T08:23:40;14.20;99.90
19880;DHT22;10102;50.828;4.416;2023-01-01T08:26:06;14.20;99.90
19880;DHT22;10102;50.828;4.416;2023-01-01T08:28:31;14.20;99.90
19880;DHT22;10102;50.828;4.416;2023-01-01T08:30:57;14.10;99.90
19880;DHT22;10102;50.828;4.416;2023-01-01T08:33:23;14.00;99.90
19880;DHT22;10102;50.828;4.416;2023-01-01T08:35:50;13.90;99.90
19880;DHT22;10102;50.828;4.416;2023-01-01T08:38:16;14.00;99.90
19880;DHT22;10102;50.828;4.416;2023-01-01T08:40:42;14.00;99.90
19880;DHT22;10102;50.828;4.416;2023-01-01T08:43:07;14.20;99.90
19880;DHT22;10102;50.828;4.416;2023-01-01T08:45:33;14.10;99.90
19880;DHT22;10102;50.828;4.416;2023-01-01T08:47:59;14.30;99.90
19880;DHT22;10102;50.828;4.416;2023-01-01T08:50:25;14.20;99.90
19880;DHT22;10102;50.828;4.416;2023-01-01T08:55:16;14.30;99.90
19880;DHT22;10102;50.828;4.416;2023-01-01T09:00:08;14.50;99.90
19880;DHT22;10102;50.828;4.416;2023-01-01T09:02:34;14.40;99.90
19880;DHT22;10102;50.828;4.416;2023-01-01T09:05:00;14.20;99.90
19880;DHT22;10102;50.828;4.416;2023-01-01T09:07:26;14.50;99.90
19880;DHT22;10102;50.828;4.416;2023-01-01T09:09:51;14.20;99.90
19880;DHT22;10102;50.828;4.416;2023-01-01T09:12:17;14.50;99.90
19880;DHT22;10102;50.828;4.416;2023-01-01T09:14:46;14.60;99.90
19880;DHT22;10102;50.828;4.416;2023-01-01T09:17:11;14.70;99.90
19880;DHT22;10102;50.828;4.416;2023-01-01T09:19:37;14.70;99.90
19880;DHT22;10102;50.828;4.416;2023-01-01T09:22:03;14.80;99.90
19880;DHT22;10102;50.828;4.416;2023-01-01T09:24:28;14.70;99.90
19880;DHT22;10102;50.828;4.416;2023-01-01T09:26:54;14.90;99.90
19880;DHT22;10102;50.828;4.416;2023-01-01T09:29:19;14.80;99.90
19880;DHT22;10102;50.828;4.416;2023-01-01T09:31:47;14.80;99.90
19880;DHT22;10102;50.828;4.416;2023-01-01T09:34:13;15.00;99.90
19880;DHT22;10102;50.828;4.416;2023-01-01T09:36:39;14.80;99.90
19880;DHT22;10102;50.828;4.416;2023-01-01T09:39:05;14.80;99.90
19880;DHT22;10102;50.828;4.416;2023-01-01T09:46:51;14.90;99.90
19880;DHT22;10102;50.828;4.416;2023-01-01T09:49:30;15.00;99.90
19880;DHT22;10102;50.828;4.416;2023-01-01T09:51:57;15.10;99.90
19880;DHT22;10102;50.828;4.416;2023-01-01T09:54:31;15.00;99.90
19880;DHT22;10102;50.828;4.416;2023-01-01T09:56:59;15.10;99.90
19880;DHT22;10102;50.828;4.416;2023-01-01T09:59:26;15.10;99.90
19880;DHT22;10102;50.828;4.416;2023-01-01T10:09:32;15.10;99.90
19880;DHT22;10102;50.828;4.416;2023-01-01T10:12:09;15.20;99.90
19880;DHT22;10102;50.828;4.416;2023-01-01T10:14:37;15.00;99.90
19880;DHT22;10102;50.828;4.416;2023-01-01T10:18:08;15.20;99.90
19880;DHT22;10102;50.828;4.416;2023-01-01T10:20:45;15.40;99.90
19880;DHT22;10102;50.828;4.416;2023-01-01T10:23:42;15.40;99.90
19880;DHT22;10102;50.828;4.416;2023-01-01T10:26:14;15.20;99.90
19880;DHT22;10102;50.828;4.416;2023-01-01T10:28:53;15.30;99.90
19880;DHT22;10102;50.828;4.416;2023-01-01T10:31:35;15.80;99.90
19880;DHT22;10102;50.828;4.416;2023-01-01T10:34:14;15.70;99.90
19880;DHT22;10102;50.828;4.416;2023-01-01T10:36:42;15.60;99.90
19880;DHT22;10102;50.828;4.416;2023-01-01T10:39:14;15.70;99.90
19880;DHT22;10102;50.828;4.416;2023-01-01T10:41:40;16.00;99.90
19880;DHT22;10102;50.828;4.416;2023-01-01T10:44:07;15.90;99.90
19880;DHT22;10102;50.828;4.416;2023-01-01T10:46:33;16.20;99.90
19880;DHT22;10102;50.828;4.416;2023-01-01T10:49:17;16.20;99.90
19880;DHT22;10102;50.828;4.416;2023-01-01T10:54:34;16.20;99.90
19880;DHT22;10102;50.828;4.416;2023-01-01T10:59:52;16.80;99.90
19880;DHT22;10102;50.828;4.416;2023-01-01T11:04:44;16.40;99.90
19880;DHT22;10102;50.828;4.416;2023-01-01T11:07:41;16.30;99.90
19880;DHT22;10102;50.828;4.416;2023-01-01T11:10:18;16.20;99.90
19880;DHT22;10102;50.828;4.416;2023-01-01T11:12:44;16.20;99.90
19880;DHT22;10102;50.828;4.416;2023-01-01T11:15:21;16.40;99.90
19880;DHT22;10102;50.828;4.416;2023-01-01T11:17:47;17.00;99.90
19880;DHT22;10102;50.828;4.416;2023-01-01T11:20:19;17.40;99.90
19880;DHT22;10102;50.828;4.416;2023-01-01T11:22:48;17.00;99.90
19880;DHT22;10102;50.828;4.416;2023-01-01T11:25:24;17.30;99.90
19880;DHT22;10102;50.828;4.416;2023-01-01T11:27:52;17.40;99.90
19880;DHT22;10102;50.828;4.416;2023-01-01T11:30:26;17.70;99.90
19880;DHT22;10102;50.828;4.416;2023-01-01T11:33:02;17.90;99.90
19880;DHT22;10102;50.828;4.416;2023-01-01T11:35:44;17.30;99.90
19880;DHT22;10102;50.828;4.416;2023-01-01T11:38:18;17.60;99.90
19880;DHT22;10102;50.828;4.416;2023-01-01T11:40:46;17.60;99.90
19880;DHT22;10102;50.828;4.416;2023-01-01T11:43:21;17.40;99.90
19880;DHT22;10102;50.828;4.416;2023-01-01T11:45:47;17.40;99.90
19880;DHT22;10102;50.828;4.416;2023-01-01T11:48:29;17.10;99.90
19880;DHT22;10102;50.828;4.416;2023-01-01T11:51:01;17.00;99.90
19880;DHT22;10102;50.828;4.416;2023-01-01T11:53:38;16.90;99.90
19880;DHT22;10102;50.828;4.416;2023-01-01T11:56:14;16.80;99.90
19880;DHT22;10102;50.828;4.416;2023-01-01T12:01:28;16.70;99.90
19880;DHT22;10102;50.828;4.416;2023-01-01T12:06:35;16.70;99.90
19880;DHT22;10102;50.828;4.416;2023-01-01T12:09:12;16.60;99.90
19880;DHT22;10102;50.828;4.416;2023-01-01T12:17:25;16.90;99.90
19880;DHT22;10102;50.828;4.416;2023-01-01T12:22:28;16.50;99.90
19880;DHT22;10102;50.828;4.416;2023-01-01T12:24:54;16.20;99.90
19880;DHT22;10102;50.828;4.416;2023-01-01T12:27:33;16.20;99.90
19880;DHT22;10102;50.828;4.416;2023-01-01T12:30:14;16.50;99.90
19880;DHT22;10102;50.828;4.416;2023-01-01T12:40:40;16.40;99.90
19880;DHT22;10102;50.828;4.416;2023-01-01T12:43:17;16.40;99.90
19880;DHT22;10102;50.828;4.416;2023-01-01T12:56:49;16.00;99.90
19880;DHT22;10102;50.828;4.416;2023-01-01T12:59:25;16.00;99.90
19880;DHT22;10102;50.828;4.416;2023-01-01T13:01:58;16.00;99.90
19880;DHT22;10102;50.828;4.416;2023-01-01T13:04:25;15.90;99.90
19880;DHT22;10102;50.828;4.416;2023-01-01T13:07:01;15.80;99.90
19880;DHT22;10102;50.828;4.416;2023-01-01T13:09:40;16.00;99.90
19880;DHT22;10102;50.828;4.416;2023-01-01T13:12:19;15.70;99.90
19880;DHT22;10102;50.828;4.416;2023-01-01T13:14:47;15.60;99.90
19880;DHT22;10102;50.828;4.416;2023-01-01T13:17:22;15.80;99.90
19880;DHT22;10102;50.828;4.416;2023-01-01T13:19:58;15.60;99.90
19880;DHT22;10102;50.828;4.416;2023-01-01T13:33:28;15.20;99.90
19880;DHT22;10102;50.828;4.416;2023-01-01T13:38:53;15.10;99.90
19880;DHT22;10102;50.828;4.416;2023-01-01T13:43:52;15.20;99.90
19880;DHT22;10102;50.828;4.416;2023-01-01T13:46:23;15.00;99.90
19880;DHT22;10102;50.828;4.416;2023-01-01T14:03:46;15.00;99.90
19880;DHT22;10102;50.828;4.416;2023-01-01T14:06:36;14.90;99.90
19880;DHT22;10102;50.828;4.416;2023-01-01T14:11:31;14.90;99.90
19880;DHT22;10102;50.828;4.416;2023-01-01T14:13:56;15.00;99.90
19880;DHT22;10102;50.828;4.416;2023-01-01T14:16:24;14.90;99.90
19880;DHT22;10102;50.828;4.416;2023-01-01T14:18:58;14.90;99.90
19880;DHT22;10102;50.828;4.416;2023-01-01T14:21:29;15.00;99.90
19880;DHT22;10102;50.828;4.416;2023-01-01T14:24:01;14.90;99.90
19880;DHT22;10102;50.828;4.416;2023-01-01T14:26:29;14.80;99.90
19880;DHT22;10102;50.828;4.416;2023-01-01T14:29:07;15.70;99.90
19880;DHT22;10102;50.828;4.416;2023-01-01T14:31:43;14.80;99.90
19880;DHT22;10102;50.828;4.416;2023-01-01T14:34:30;14.70;99.90
19880;DHT22;10102;50.828;4.416;2023-01-01T14:37:01;14.80;99.90
19880;DHT22;10102;50.828;4.416;2023-01-01T14:39:30;14.90;99.90
19880;DHT22;10102;50.828;4.416;2023-01-01T14:42:16;15.20;99.90
19880;DHT22;10102;50.828;4.416;2023-01-01T14:44:44;14.90;99.90
19880;DHT22;10102;50.828;4.416;2023-01-01T14:47:24;14.80;99.90
19880;DHT22;10102;50.828;4.416;2023-01-01T14:49:51;14.80;99.90
19880;DHT22;10102;50.828;4.416;2023-01-01T14:52:23;14.90;99.90
19880;DHT22;10102;50.828;4.416;2023-01-01T14:54:50;14.90;99.90
19880;DHT22;10102;50.828;4.416;2023-01-01T14:57:19;15.00;99.90
19880;DHT22;10102;50.828;4.416;2023-01-01T14:59:50;14.70;99.90
19880;DHT22;10102;50.828;4.416;2023-01-01T15:04:50;14.80;99.90
19880;DHT22;10102;50.828;4.416;2023-01-01T15:07:25;14.80;99.90
19880;DHT22;10102;50.828;4.416;2023-01-01T15:09:53;14.70;99.90
19880;DHT22;10102;50.828;4.416;2023-01-01T15:12:19;15.10;99.90
19880;DHT22;10102;50.828;4.416;2023-01-01T15:14:48;14.80;99.90
19880;DHT22;10102;50.828;4.416;2023-01-01T15:17:16;14.60;99.90
19880;DHT22;10102;50.828;4.416;2023-01-01T15:19:44;14.50;99.90
19880;DHT22;10102;50.828;4.416;2023-01-01T15:24:48;14.60;99.90
19880;DHT22;10102;50.828;4.416;2023-01-01T15:27:28;14.60;99.90
19880;DHT22;10102;50.828;4.416;2023-01-01T15:29:55;14.40;99.90
19880;DHT22;10102;50.828;4.416;2023-01-01T15:32:36;14.40;99.90
19880;DHT22;10102;50.828;4.416;2023-01-01T15:35:18;14.30;99.90
19880;DHT22;10102;50.828;4.416;2023-01-01T15:37:50;14.30;99.90
19880;DHT22;10102;50.828;4.416;2023-01-01T15:43:07;14.10;99.90
19880;DHT22;10102;50.828;4.416;2023-01-01T15:45:39;13.90;99.90
19880;DHT22;10102;50.828;4.416;2023-01-01T15:53:26;13.90;99.90
19880;DHT22;10102;50.828;4.416;2023-01-01T15:56:08;13.90;99.90
19880;DHT22;10102;50.828;4.416;2023-01-01T16:01:03;14.00;99.90
19880;DHT22;10102;50.828;4.416;2023-01-01T16:03:31;13.80;99.90
19880;DHT22;10102;50.828;4.416;2023-01-01T16:05:58;13.90;99.90
19880;DHT22;10102;50.828;4.416;2023-01-01T16:08:24;13.90;99.90
19880;DHT22;10102;50.828;4.416;2023-01-01T16:10:50;13.80;99.90
19880;DHT22;10102;50.828;4.416;2023-01-01T16:13:17;13.80;99.90
19880;DHT22;10102;50.828;4.416;2023-01-01T16:15:58;13.80;99.90
19880;DHT22;10102;50.828;4.416;2023-01-01T16:18:29;13.80;99.90
19880;DHT22;10102;50.828;4.416;2023-01-01T16:20:56;16.70;99.90
19880;DHT22;10102;50.828;4.416;2023-01-01T16:23:21;13.90;99.90
19880;DHT22;10102;50.828;4.416;2023-01-01T16:25:47;13.90;99.90
19880;DHT22;10102;50.828;4.416;2023-01-01T16:28:13;14.20;99.90
19880;DHT22;10102;50.828;4.416;2023-01-01T16:30:39;14.10;99.90
19880;DHT22;10102;50.828;4.416;2023-01-01T16:33:14;13.80;99.90
19880;DHT22;10102;50.828;4.416;2023-01-01T16:35:40;14.10;99.90
19880;DHT22;10102;50.828;4.416;2023-01-01T16:38:06;14.00;99.90
19880;DHT22;10102;50.828;4.416;2023-01-01T16:40:31;13.80;99.90
19880;DHT22;10102;50.828;4.416;2023-01-01T16:42:57;13.60;99.90
19880;DHT22;10102;50.828;4.416;2023-01-01T16:45:23;13.60;99.90
19880;DHT22;10102;50.828;4.416;2023-01-01T16:47:49;13.30;99.90
19880;DHT22;10102;50.828;4.416;2023-01-01T16:50:15;13.40;99.90
19880;DHT22;10102;50.828;4.416;2023-01-01T16:52:40;13.60;99.90
19880;DHT22;10102;50.828;4.416;2023-01-01T16:55:06;13.60;99.90
19880;DHT22;10102;50.828;4.416;2023-01-01T16:57:32;13.60;99.90
19880;DHT22;10102;50.828;4.416;2023-01-01T16:59:58;13.50;99.90
19880;DHT22;10102;50.828;4.416;2023-01-01T17:02:24;13.40;99.90
19880;DHT22;10102;50.828;4.416;2023-01-01T17:04:49;13.30;99.90
19880;DHT22;10102;50.828;4.416;2023-01-01T17:07:15;13.20;99.90
19880;DHT22;10102;50.828;4.416;2023-01-01T17:09:41;13.10;99.90
19880;DHT22;10102;50.828;4.416;2023-01-01T17:12:07;13.20;99.90
19880;DHT22;10102;50.828;4.416;2023-01-01T17:14:32;13.20;99.90
19880;DHT22;10102;50.828;4.416;2023-01-01T17:16:58;13.40;99.90
19880;DHT22;10102;50.828;4.416;2023-01-01T17:19:24;13.20;99.90
19880;DHT22;10102;50.828;4.416;2023-01-01T17:21:50;13.30;99.90
19880;DHT22;10102;50.828;4.416;2023-01-01T17:24:17;13.30;99.90
19880;DHT22;10102;50.828;4.416;2023-01-01T17:26:43;13.40;99.90
19880;DHT22;10102;50.828;4.416;2023-01-01T17:29:10;13.20;99.90
19880;DHT22;10102;50.828;4.416;2023-01-01T17:31:36;13.30;99.90
19880;DHT22;10102;50.828;4.416;2023-01-01T17:34:02;13.20;99.90
19880;DHT22;10102;50.828;4.416;2023-01-01T17:36:29;13.20;99.90
19880;DHT22;10102;50.828;4.416;2023-01-01T17:38:55;13.10;99.90
19880;DHT22;10102;50.828;4.416;2023-01-01T17:43:48;16.40;99.90
19880;DHT22;10102;50.828;4.416;2023-01-01T17:46:20;13.30;99.90
19880;DHT22;10102;50.828;4.416;2023-01-01T17:48:46;13.20;99.90
19880;DHT22;10102;50.828;4.416;2023-01-01T17:51:13;13.50;99.90
19880;DHT22;10102;50.828;4.416;2023-01-01T17:53:39;13.20;99.90
19880;DHT22;10102;50.828;4.416;2023-01-01T17:56:06;13.10;99.90
19880;DHT22;10102;50.828;4.416;2023-01-01T17:58:32;13.20;99.90
19880;DHT22;10102;50.828;4.416;2023-01-01T18:03:36;13.00;99.90
19880;DHT22;10102;50.828;4.416;2023-01-01T18:06:02;13.00;99.90
19880;DHT22;10102;50.828;4.416;2023-01-01T18:08:28;12.90;99.90
19880;DHT22;10102;50.828;4.416;2023-01-01T18:10:55;12.90;99.90
19880;DHT22;10102;50.828;4.416;2023-01-01T18:13:21;12.80;99.90
19880;DHT22;10102;50.828;4.416;2023-01-01T18:15:47;12.70;99.90